Somerset, NJ - U.S.A.

40° 30' 13"N, 74° 29' 17"W, Elevation 55 ft.

Monday, August 31, 2015
7:42:00 PM (Eastern)

243rd day of the year

Updated and refreshed every 2 minutes. Weather computer in use: Davis Vantage PRO2 Plus


Current Weather:
Yesterday

Current Today's Highs and Lows 24 HR Change
Temperature 85.5°F (29.7°C) ↓ 90.1° 2:33 PM
70.1° 6:18 AM
0.8
Dew Point 66.1°F (19.0°C) ↓ 72.9° 9:35 AM
65.2° 6:00 PM
-0
Humidity 52% ↑ 96% 7:55 AM
45% 4:34 PM
-2%
Wind Gust SSW 3 mph S 20 3:05 PM
N 0 12:00 AM
 
Wind Speed SSW 0 mph ↓
Calm (0)
N 9 3:37 PM
N 0 12:00 AM
0 mph
Precipitation 0.00" (0.00 mm) 1
Last 24 hours 0.04"
Instantaneous rate 0.00"/hr
Storm total 0.04"
0.00"2 12:00 AM
0.00"2 12:00 AM
0.04 ins.
Barometer 29.955" (1014.4 mb)
Rising
30.046" 7:59 AM
29.943" 4:59 PM
-0.049"
Wind Chill Gust 86°F (30°C) 90° 2:33 PM
70° 6:18 AM
 
Wind Chill Avg 86°F (30°C) 90° 2:33 PM
70° 6:18 AM
 
Heat Index 88°F (31.1°C) 96° 2:31 PM
71° 1:49 AM
 
Sunshine 0 W/m2
Sunshine minutes 446
710 2:02 PM
0 12:00 AM
0 W/m2
UV Index  0.0 2.8 1:43 PM
0.0 12:00 AM
0.0
1. Daily total rainfall.
2. Maximum and minimum rainfall are the instantaneous rainfall rates.
 

'KSOM' METAR REPORT:

METAR KSOM 312342Z AUTO 21000KT 30/19 A2995 RMK AO1 SLP144 T02970190 

Webcam
EBWeather Image

Video - Last 3 Hours

Video - Yesterday

NJ Region Surface Map
NJ Sfc Map

Weather Data from Somerset, NJ

Data generated by WxSolution Version 1.8.7.5, Build 2015.04.24.